Time;durP1;ratioP1;P1;durP2;ratioP2;P2;SDS_P1;SDS_P2;PMS_P1;PMS_P2;Temp;Humidity;BMP_temperature;BMP_pressure;BME280_temperature;BME280_humidity;BME280_pressure;Samples;Min_cycle;Max_cycle;Signal;HPM_P1;HPM_P2
2023/06/04 00:00:42;;;;;;;5.03;1.60;;;11.10;99.90;;;;;;5065039;28;20130;-75
2023/06/04 00:03:08;;;;;;;4.90;1.58;;;11.00;99.90;;;;;;5096799;28;20117;-75
2023/06/04 00:05:34;;;;;;;6.22;1.73;;;11.10;99.90;;;;;;5096470;28;20469;-76
2023/06/04 00:07:59;;;;;;;5.88;1.75;;;11.00;99.90;;;;;;5114830;28;20116;-77
2023/06/04 00:10:25;;;;;;;8.20;2.05;;;10.90;99.90;;;;;;5116796;28;20043;-76
2023/06/04 00:12:51;;;;;;;6.53;1.80;;;10.90;99.90;;;;;;5115167;28;20044;-76
2023/06/04 00:15:17;;;;;;;8.07;2.10;;;10.90;99.90;;;;;;5080908;28;20075;-76
2023/06/04 00:17:43;;;;;;;6.50;2.03;;;10.80;99.90;;;;;;5118539;28;20062;-78
2023/06/04 00:20:10;;;;;;;6.35;2.25;;;10.70;99.90;;;;;;5117451;28;20416;-77
2023/06/04 00:22:35;;;;;;;7.38;2.10;;;10.70;99.90;;;;;;5117165;28;20042;-76
2023/06/04 00:25:01;;;;;;;6.70;2.03;;;10.70;99.90;;;;;;5097910;28;20044;-76
2023/06/04 00:27:27;;;;;;;7.43;2.08;;;10.70;99.90;;;;;;5097077;28;20469;-76
2023/06/04 00:29:53;;;;;;;5.50;2.20;;;10.60;99.90;;;;;;5097800;28;20048;-76
2023/06/04 00:32:19;;;;;;;10.23;2.53;;;10.60;99.90;;;;;;5080143;28;20480;-75
2023/06/04 00:34:51;;;;;;;8.57;2.43;;;10.60;99.90;;;;;;5096132;28;20054;-76
2023/06/04 00:37:17;;;;;;;11.77;2.30;;;10.50;99.90;;;;;;5096734;28;20047;-77
2023/06/04 00:39:42;;;;;;;8.40;2.35;;;10.50;99.90;;;;;;5096310;28;20050;-76
2023/06/04 00:42:08;;;;;;;6.55;2.60;;;10.50;99.90;;;;;;5079157;28;20048;-75
2023/06/04 00:44:36;;;;;;;9.90;2.80;;;10.40;99.90;;;;;;5113877;28;20040;-76
2023/06/04 00:47:02;;;;;;;6.22;2.45;;;10.40;99.90;;;;;;5096206;28;20047;-76
2023/06/04 00:49:28;;;;;;;6.68;2.33;;;10.40;99.90;;;;;;5096006;28;20176;-76
2023/06/04 00:51:54;;;;;;;11.18;2.78;;;10.40;99.90;;;;;;5095826;28;20079;-77
2023/06/04 00:54:20;;;;;;;10.98;2.70;;;10.40;99.90;;;;;;5113621;28;20126;-78
2023/06/04 00:56:47;;;;;;;6.60;2.47;;;10.30;99.90;;;;;;5095892;28;20551;-75
2023/06/04 00:59:14;;;;;;;8.00;2.63;;;10.30;99.90;;;;;;5095803;28;20185;-76
2023/06/04 01:01:49;;;;;;;7.80;2.42;;;10.30;99.90;;;;;;5113620;28;20059;-77
2023/06/04 01:04:28;;;;;;;11.23;2.85;;;10.30;99.90;;;;;;5114715;28;20047;-76
2023/06/04 01:06:58;;;;;;;8.95;3.08;;;10.30;99.90;;;;;;5114080;28;20043;-77
2023/06/04 01:09:26;;;;;;;7.72;2.67;;;10.30;99.90;;;;;;5095946;28;20131;-76
2023/06/04 01:11:51;;;;;;;8.02;2.60;;;10.20;99.90;;;;;;5087622;28;20047;-78
2023/06/04 01:14:19;;;;;;;8.15;2.28;;;10.20;99.90;;;;;;5106138;28;20043;-77
2023/06/04 01:17:02;;;;;;;;;;;10.20;99.90;;;;;;5113921;28;20043;-76
2023/06/04 01:19:54;;;;;;;13.00;3.20;;;10.10;99.90;;;;;;5096745;28;19920;-78
2023/06/04 01:22:37;;;;;;;8.98;3.10;;;10.10;99.90;;;;;;5095713;28;20062;-78
2023/06/04 01:25:09;;;;;;;7.75;2.63;;;10.10;99.90;;;;;;5081928;28;20102;-78
2023/06/04 01:27:35;;;;;;;10.40;2.65;;;10.10;99.90;;;;;;5100218;28;20071;-78
2023/06/04 01:30:03;;;;;;;9.75;2.83;;;10.10;99.90;;;;;;5100607;28;20428;-78
2023/06/04 01:32:30;;;;;;;6.75;2.72;;;10.00;99.90;;;;;;5117481;28;20044;-77
2023/06/04 01:34:55;;;;;;;11.32;3.35;;;10.00;99.90;;;;;;5082575;28;20127;-77
2023/06/04 01:37:21;;;;;;;9.68;2.80;;;10.00;99.90;;;;;;5099805;28;20138;-78
2023/06/04 01:39:47;;;;;;;12.40;3.35;;;10.00;99.90;;;;;;5118057;28;20381;-77
2023/06/04 01:42:13;;;;;;;7.60;2.70;;;10.00;99.90;;;;;;5066142;28;20051;-78
2023/06/04 01:44:38;;;;;;;9.40;2.95;;;10.00;99.90;;;;;;5117429;28;20054;-78
2023/06/04 01:47:04;;;;;;;9.05;3.00;;;10.00;99.90;;;;;;5082551;28;20051;-77
2023/06/04 01:49:30;;;;;;;7.95;3.05;;;9.90;99.90;;;;;;5117405;28;20445;-77
2023/06/04 01:51:56;;;;;;;9.00;2.72;;;9.90;99.90;;;;;;5099062;28;20044;-78
2023/06/04 01:54:22;;;;;;;11.52;3.42;;;9.90;99.90;;;;;;5099144;28;20047;-77
2023/06/04 01:56:48;;;;;;;11.40;3.53;;;9.90;99.90;;;;;;5117071;28;20044;-77
2023/06/04 01:59:21;;;;;;;8.88;3.13;;;9.80;99.90;;;;;;5100751;28;20055;-76
2023/06/04 02:01:47;;;;;;;12.23;3.05;;;;;;;;;;5099310;28;20056;-78
2023/06/04 02:04:13;;;;;;;9.15;3.38;;;9.90;99.90;;;;;;5099069;28;20047;-76
2023/06/04 02:06:39;;;;;;;9.80;3.22;;;10.00;99.90;;;;;;5083088;28;20059;-76
2023/06/04 02:09:04;;;;;;;14.07;3.65;;;9.90;99.90;;;;;;5082480;28;20051;-76
2023/06/04 02:11:31;;;;;;;12.13;3.30;;;9.90;99.90;;;;;;5116700;28;20123;-77
2023/06/04 02:13:58;;;;;;;6.75;3.10;;;;;;;;;;5117114;28;20043;-78
2023/06/04 02:16:23;;;;;;;12.07;3.30;;;9.60;99.90;;;;;;5098745;28;20504;-76
2023/06/04 02:18:49;;;;;;;15.65;3.78;;;9.70;99.90;;;;;;5080834;28;20094;-77
2023/06/04 02:21:15;;;;;;;8.65;3.58;;;9.70;99.90;;;;;;5122703;28;20114;-76
2023/06/04 02:23:41;;;;;;;12.90;3.92;;;9.60;99.90;;;;;;5116952;28;20091;-75
2023/06/04 02:26:06;;;;;;;12.10;4.10;;;9.70;99.90;;;;;;5128848;28;20134;-77
2023/06/04 02:28:32;;;;;;;9.98;3.55;;;9.80;99.90;;;;;;5117657;28;20123;-77
2023/06/04 02:30:58;;;;;;;12.23;4.13;;;9.70;99.90;;;;;;5098738;28;20497;-77
2023/06/04 02:33:24;;;;;;;14.10;3.88;;;9.70;99.90;;;;;;5116494;28;20046;-76
2023/06/04 02:35:50;;;;;;;14.63;4.85;;;9.50;99.90;;;;;;5097150;28;20052;-78
2023/06/04 02:38:15;;;;;;;15.65;5.15;;;9.70;99.90;;;;;;5117407;28;20054;-77
2023/06/04 02:40:42;;;;;;;12.73;5.05;;;9.60;99.90;;;;;;5097294;28;20455;-76
2023/06/04 02:43:08;;;;;;;12.00;4.70;;;9.40;99.90;;;;;;5097366;28;20043;-75
2023/06/04 02:45:33;;;;;;;16.65;4.20;;;9.40;99.90;;;;;;5115585;28;20039;-76
2023/06/04 02:47:59;;;;;;;10.82;3.78;;;9.40;99.90;;;;;;5096945;28;20131;-77
2023/06/04 02:50:25;;;;;;;15.82;4.50;;;9.20;99.90;;;;;;5115121;28;20043;-77
2023/06/04 02:52:51;;;;;;;10.05;3.83;;;;;;;;;;5114977;28;20400;-76
2023/06/04 02:55:17;;;;;;;16.88;5.65;;;9.40;99.90;;;;;;5097468;28;20092;-76
2023/06/04 02:57:43;;;;;;;13.13;4.95;;;9.50;99.90;;;;;;5063745;28;20043;-76
2023/06/04 03:00:14;;;;;;;14.75;4.70;;;9.50;99.90;;;;;;5114913;28;20055;-76
2023/06/04 03:02:45;;;;;;;17.58;5.07;;;9.30;99.90;;;;;;5096354;28;20058;-76
2023/06/04 03:05:13;;;;;;;16.10;5.10;;;9.40;99.90;;;;;;5096800;28;20047;-76
2023/06/04 03:07:44;;;;;;;15.40;5.15;;;9.30;99.90;;;;;;5080088;28;20036;-76
2023/06/04 03:10:11;;;;;;;16.38;5.03;;;9.40;99.90;;;;;;5080415;28;20054;-76
2023/06/04 03:12:37;;;;;;;;;;;9.40;99.90;;;;;;5097586;28;20043;-76
2023/06/04 03:15:04;;;;;;;22.07;5.83;;;9.20;99.90;;;;;;5115168;28;20276;-77
2023/06/04 03:17:31;;;;;;;18.75;5.10;;;9.10;99.90;;;;;;5051380;28;1280951;-78
2023/06/04 03:19:57;;;;;;;15.30;5.82;;;9.00;99.90;;;;;;5097674;28;20047;-78
2023/06/04 03:22:23;;;;;;;18.30;5.82;;;9.10;99.90;;;;;;5097439;28;20503;-77
2023/06/04 03:24:49;;;;;;;14.98;5.60;;;9.20;99.90;;;;;;5098194;28;20376;-78
2023/06/04 03:27:15;;;;;;;18.75;6.35;;;9.20;99.90;;;;;;5115459;28;20126;-76
2023/06/04 03:29:40;;;;;;;19.27;6.38;;;9.30;99.90;;;;;;5097743;28;20096;-76
2023/06/04 03:32:07;;;;;;;22.25;6.93;;;9.10;99.90;;;;;;5115442;28;20044;-76
2023/06/04 03:34:32;;;;;;;17.55;6.82;;;9.10;99.90;;;;;;5102359;28;20046;-76
2023/06/04 03:36:59;;;;;;;19.42;6.38;;;9.10;99.90;;;;;;5133804;28;20036;-77
2023/06/04 03:39:25;;;;;;;22.17;6.78;;;9.20;99.90;;;;;;5127510;28;20066;-76
2023/06/04 03:41:51;;;;;;;22.10;7.07;;;9.10;99.90;;;;;;5098140;28;20477;-76
2023/06/04 03:44:17;;;;;;;20.70;6.70;;;9.30;99.90;;;;;;5097204;28;20043;-77
2023/06/04 03:46:44;;;;;;;23.50;7.10;;;9.20;99.90;;;;;;5097076;28;20055;-77
2023/06/04 03:49:10;;;;;;;24.38;7.75;;;;;;;;;;5115332;28;20108;-78
2023/06/04 03:51:39;;;;;;;21.85;7.72;;;9.30;99.90;;;;;;5115161;28;20048;-77
2023/06/04 03:54:05;;;;;;;22.90;7.93;;;9.20;99.90;;;;;;5080223;28;20051;-76
2023/06/04 03:56:31;;;;;;;16.48;7.05;;;9.30;99.90;;;;;;5097797;28;20039;-77
2023/06/04 03:58:58;;;;;;;22.30;7.10;;;9.30;99.90;;;;;;5097787;28;20051;-77
2023/06/04 04:01:24;;;;;;;20.77;7.47;;;9.30;99.90;;;;;;5115088;28;20043;-76
2023/06/04 04:03:50;;;;;;;22.35;8.48;;;9.30;99.90;;;;;;5114894;28;20127;-77
2023/06/04 04:06:17;;;;;;;24.08;8.70;;;9.30;99.90;;;;;;5114849;28;20158;-76
2023/06/04 04:08:43;;;;;;;24.48;7.63;;;9.30;99.90;;;;;;5114829;28;20104;-77
2023/06/04 04:11:16;;;;;;;25.48;9.15;;;9.30;99.90;;;;;;5115423;28;20047;-77
2023/06/04 04:13:44;;;;;;;19.02;8.27;;;9.40;99.90;;;;;;5079898;28;20040;-74
2023/06/04 04:16:10;;;;;;;25.40;7.43;;;9.40;99.90;;;;;;5115314;28;20126;-75
2023/06/04 04:18:36;;;;;;;21.92;7.72;;;9.40;99.90;;;;;;5115657;28;20424;-77
2023/06/04 04:21:03;;;;;;;25.85;8.45;;;9.50;99.90;;;;;;5114729;28;20047;-76
2023/06/04 04:23:31;;;;;;;26.85;8.70;;;9.50;99.90;;;;;;5096452;28;20497;-77
2023/06/04 04:25:58;;;;;;;24.25;8.05;;;9.50;99.90;;;;;;5114321;28;20239;-75
2023/06/04 04:28:28;;;;;;;21.33;9.05;;;9.60;99.90;;;;;;5096082;28;20401;-76
2023/06/04 04:30:57;;;;;;;24.20;8.70;;;9.60;99.90;;;;;;5096285;28;20126;-75
2023/06/04 04:33:26;;;;;;;27.45;8.00;;;9.60;99.90;;;;;;5114469;28;20040;-75
2023/06/04 04:35:53;;;;;;;25.77;9.00;;;9.60;99.90;;;;;;5114992;28;20385;-78
2023/06/04 04:38:25;;;;;;;23.95;8.10;;;9.70;99.90;;;;;;5096042;28;20036;-75
2023/06/04 04:40:52;;;;;;;20.60;9.02;;;9.70;99.90;;;;;;5063381;28;20047;-75
2023/06/04 04:43:40;;;;;;;21.83;8.30;;;9.80;99.90;;;;;;5096238;28;20045;-76
2023/06/04 04:46:06;;;;;;;29.75;8.68;;;9.90;99.90;;;;;;5097321;28;20159;-76
2023/06/04 04:48:32;;;;;;;27.92;9.65;;;9.90;99.90;;;;;;5116028;28;20490;-76
2023/06/04 04:50:58;;;;;;;24.10;8.52;;;10.00;99.90;;;;;;5089080;28;20047;-77
2023/06/04 04:53:25;;;;;;;26.08;8.55;;;10.00;99.90;;;;;;5097080;28;20496;-77
2023/06/04 04:55:51;;;;;;;23.33;7.90;;;10.00;99.90;;;;;;5095896;28;20046;-76
2023/06/04 04:58:17;;;;;;;21.35;7.40;;;10.10;99.90;;;;;;5114497;28;20440;-74
2023/06/04 05:00:42;;;;;;;27.52;9.18;;;10.10;99.90;;;;;;5120618;28;20071;-75
2023/06/04 05:03:08;;;;;;;23.92;7.85;;;10.30;99.90;;;;;;5102598;28;20044;-76
2023/06/04 05:05:34;;;;;;;21.73;7.68;;;10.30;99.90;;;;;;5086496;28;20127;-76
2023/06/04 05:08:00;;;;;;;25.50;8.48;;;10.40;99.90;;;;;;5120787;28;20515;-76
2023/06/04 05:10:25;;;;;;;24.17;8.38;;;10.40;99.90;;;;;;5086123;28;20051;-76
2023/06/04 05:12:56;;;;;;;22.77;7.88;;;10.50;99.90;;;;;;5103179;28;20051;-75
2023/06/04 05:15:24;;;;;;;19.83;8.35;;;10.60;99.90;;;;;;5123594;28;20048;-77
2023/06/04 05:17:52;;;;;;;23.85;8.18;;;10.70;99.90;;;;;;5087522;28;20055;-75
2023/06/04 05:20:18;;;;;;;24.10;9.00;;;10.70;99.90;;;;;;5124604;28;20055;-75
2023/06/04 05:22:45;;;;;;;19.23;7.82;;;10.80;99.90;;;;;;5105066;28;20048;-78
2023/06/04 05:25:11;;;;;;;26.85;8.10;;;10.90;99.90;;;;;;5103528;28;20374;-76
2023/06/04 05:27:38;;;;;;;19.20;7.53;;;11.00;99.90;;;;;;5086623;28;20055;-75
2023/06/04 05:30:04;;;;;;;20.98;9.00;;;11.10;99.90;;;;;;5120599;28;20123;-76
2023/06/04 05:32:32;;;;;;;28.50;10.00;;;11.20;99.90;;;;;;5102272;28;20070;-77
2023/06/04 05:34:58;;;;;;;;;;;11.30;99.90;;;;;;5085784;28;20054;-76
2023/06/04 05:37:28;;;;;;;25.38;9.07;;;11.30;99.90;;;;;;5085479;28;19919;-75
2023/06/04 05:39:55;;;;;;;23.15;9.68;;;11.40;99.90;;;;;;5121440;28;20043;-74
2023/06/04 05:42:21;;;;;;;25.42;8.38;;;11.40;99.90;;;;;;5120413;28;20043;-76
2023/06/04 05:44:48;;;;;;;22.77;8.60;;;11.50;99.90;;;;;;5120870;28;20058;-75
2023/06/04 05:47:15;;;;;;;20.52;8.30;;;11.60;99.90;;;;;;5069764;28;20044;-76
2023/06/04 05:49:40;;;;;;;;;;;11.70;99.90;;;;;;5120906;28;20052;-76
2023/06/04 05:52:06;;;;;;;22.37;9.03;;;11.80;99.90;;;;;;5120381;28;20353;-76
2023/06/04 05:54:32;;;;;;;23.67;8.55;;;11.80;99.90;;;;;;5120334;28;20047;-75
2023/06/04 05:56:58;;;;;;;20.80;8.63;;;11.90;99.90;;;;;;5101988;28;20046;-76
2023/06/04 05:59:24;;;;;;;19.35;8.68;;;12.00;99.90;;;;;;5122683;28;20047;-75
2023/06/04 06:01:50;;;;;;;24.88;10.07;;;12.10;99.90;;;;;;5098066;28;20103;-75
2023/06/04 06:04:16;;;;;;;21.33;8.02;;;12.10;99.90;;;;;;5104186;28;20139;-76
2023/06/04 06:06:43;;;;;;;18.08;7.68;;;12.20;99.90;;;;;;5121119;28;20488;-75
2023/06/04 06:09:10;;;;;;;18.30;7.50;;;12.30;99.90;;;;;;5102169;28;20053;-75
2023/06/04 06:11:36;;;;;;;18.73;7.88;;;12.40;99.90;;;;;;5098427;28;20047;-77
2023/06/04 06:14:02;;;;;;;19.30;7.63;;;12.50;99.90;;;;;;5082403;28;20047;-76
2023/06/04 06:16:28;;;;;;;18.85;7.32;;;12.60;99.90;;;;;;5098356;28;20048;-76
2023/06/04 06:18:53;;;;;;;18.67;8.27;;;12.60;99.90;;;;;;5098105;28;20185;-75
2023/06/04 06:21:20;;;;;;;14.80;6.20;;;12.70;99.90;;;;;;5081710;28;20051;-74
2023/06/04 06:23:46;;;;;;;20.13;6.45;;;12.80;99.90;;;;;;5116801;28;20039;-75
2023/06/04 06:26:12;;;;;;;17.55;5.80;;;12.90;99.90;;;;;;5117140;28;20358;-75
2023/06/04 06:28:38;;;;;;;16.17;6.68;;;13.00;99.90;;;;;;5098956;28;20043;-76
2023/06/04 06:31:04;;;;;;;12.70;5.38;;;13.10;99.90;;;;;;5116832;28;20370;-75
2023/06/04 06:33:31;;;;;;;12.57;5.55;;;13.10;99.90;;;;;;5081501;28;20036;-76
2023/06/04 06:35:59;;;;;;;15.02;6.25;;;13.30;99.90;;;;;;5081572;28;20048;-76
2023/06/04 06:38:26;;;;;;;17.05;5.57;;;13.30;99.90;;;;;;5116858;28;20389;-75
2023/06/04 06:40:52;;;;;;;15.13;6.07;;;13.30;99.90;;;;;;5116810;28;20489;-75
2023/06/04 06:43:18;;;;;;;16.10;5.95;;;13.40;99.90;;;;;;5098994;28;20047;-75
2023/06/04 06:45:44;;;;;;;12.88;5.18;;;13.50;99.90;;;;;;5081393;28;20071;-76
2023/06/04 06:48:10;;;;;;;10.50;4.85;;;13.60;99.90;;;;;;5116111;28;20485;-74
2023/06/04 06:50:35;;;;;;;13.23;4.68;;;13.60;99.90;;;;;;5116119;28;20119;-72
2023/06/04 06:53:02;;;;;;;11.32;4.97;;;13.70;99.90;;;;;;5116031;28;20469;-74
2023/06/04 06:55:28;;;;;;;13.75;5.75;;;13.80;99.90;;;;;;5098495;28;20496;-74
2023/06/04 06:57:54;;;;;;;11.48;4.15;;;13.90;99.90;;;;;;5098913;28;20043;-76
2023/06/04 07:00:19;;;;;;;8.55;3.22;;;14.00;99.90;;;;;;5098425;28;20079;-77
2023/06/04 07:02:45;;;;;;;9.40;3.70;;;14.10;99.90;;;;;;5098627;28;20051;-75
2023/06/04 07:05:13;;;;;;;9.43;2.97;;;14.20;99.90;;;;;;5098606;28;20443;-76
2023/06/04 07:07:39;;;;;;;14.02;3.53;;;14.30;99.90;;;;;;5117204;28;20047;-76
2023/06/04 07:10:05;;;;;;;9.95;3.60;;;14.40;99.90;;;;;;5109942;28;20520;-74
2023/06/04 07:12:31;;;;;;;11.45;3.33;;;14.50;99.90;;;;;;5104502;28;20442;-77
2023/06/04 07:14:57;;;;;;;10.85;3.28;;;14.50;99.90;;;;;;5098602;28;20089;-76
2023/06/04 07:17:22;;;;;;;11.45;3.80;;;14.60;99.90;;;;;;5080101;28;20135;-75
2023/06/04 07:19:48;;;;;;;9.40;3.70;;;14.70;99.90;;;;;;5115924;28;20052;-78
2023/06/04 07:22:15;;;;;;;10.55;3.15;;;14.80;99.90;;;;;;5064439;28;20453;-75
2023/06/04 07:24:42;;;;;;;9.13;3.03;;;14.90;99.90;;;;;;5097311;28;20454;-77
2023/06/04 07:27:12;;;;;;;9.90;3.22;;;15.00;99.90;;;;;;5096952;28;20481;-73
2023/06/04 07:29:41;;;;;;;9.57;3.42;;;15.10;99.90;;;;;;5096739;28;20577;-76
2023/06/04 07:32:07;;;;;;;9.05;2.63;;;15.10;99.90;;;;;;5115466;28;20040;-74
2023/06/04 07:34:32;;;;;;;8.98;2.67;;;15.20;99.90;;;;;;5097082;28;20385;-74
2023/06/04 07:36:58;;;;;;;13.38;3.35;;;15.20;99.90;;;;;;5097085;28;20047;-76
2023/06/04 07:39:24;;;;;;;9.05;3.47;;;15.20;99.90;;;;;;5096985;28;20051;-75
2023/06/04 07:41:50;;;;;;;9.52;3.50;;;15.30;99.90;;;;;;5080181;28;20087;-75
2023/06/04 07:44:16;;;;;;;8.93;2.80;;;15.40;99.90;;;;;;5096777;28;20039;-75
2023/06/04 07:46:41;;;;;;;13.30;3.42;;;15.60;99.90;;;;;;5114957;28;20051;-74
2023/06/04 07:49:08;;;;;;;8.40;3.10;;;15.60;99.90;;;;;;5096734;28;20084;-75
2023/06/04 07:51:34;;;;;;;12.65;3.20;;;15.60;99.90;;;;;;5115483;28;20105;-75
2023/06/04 07:54:01;;;;;;;7.80;2.60;;;15.70;99.90;;;;;;5114648;28;20039;-73
2023/06/04 07:56:27;;;;;;;;;;;15.80;99.90;;;;;;5097114;28;20039;-76
2023/06/04 07:58:53;;;;;;;9.27;3.03;;;15.90;99.90;;;;;;5096457;28;19927;-73
2023/06/04 08:01:19;;;;;;;9.10;2.95;;;15.90;99.90;;;;;;5114742;28;20047;-76
2023/06/04 08:03:44;;;;;;;11.70;3.22;;;16.10;99.90;;;;;;5079301;28;20043;-77
2023/06/04 08:06:10;;;;;;;7.28;2.40;;;16.20;99.90;;;;;;5097350;28;20173;-76
2023/06/04 08:08:36;;;;;;;7.35;1.60;;;16.20;99.90;;;;;;5097374;28;20087;-76
2023/06/04 08:11:02;;;;;;;12.63;2.83;;;16.30;99.90;;;;;;5097018;28;20558;-76
2023/06/04 08:13:28;;;;;;;8.88;3.42;;;16.40;99.90;;;;;;5079861;28;20176;-78
2023/06/04 08:15:54;;;;;;;9.00;3.08;;;16.60;99.90;;;;;;5097305;28;20085;-74
2023/06/04 08:18:20;;;;;;;6.00;2.67;;;16.60;99.90;;;;;;5097840;28;20055;-74
2023/06/04 08:20:45;;;;;;;8.30;2.55;;;16.60;99.90;;;;;;5114536;28;20036;-74
2023/06/04 08:23:11;;;;;;;9.07;2.40;;;16.50;99.90;;;;;;5079368;28;20409;-74
2023/06/04 08:25:37;;;;;;;8.82;2.70;;;16.60;99.90;;;;;;5096108;28;20043;-76
2023/06/04 08:28:03;;;;;;;7.43;2.50;;;16.70;99.90;;;;;;5114786;28;20381;-75
2023/06/04 08:30:29;;;;;;;8.82;1.52;;;16.80;99.90;;;;;;5114237;28;20046;-75
2023/06/04 08:32:55;;;;;;;6.63;1.90;;;16.90;99.90;;;;;;5079428;28;20050;-74
2023/06/04 08:35:20;;;;;;;6.07;2.20;;;17.10;99.90;;;;;;5079377;28;20043;-71
2023/06/04 08:37:46;;;;;;;7.00;2.33;;;17.10;99.90;;;;;;5113722;28;20374;-73
2023/06/04 08:40:12;;;;;;;7.35;1.70;;;17.20;99.90;;;;;;5096953;28;20058;-75
2023/06/04 08:42:44;;;;;;;9.20;2.00;;;17.30;99.90;;;;;;5080178;28;20044;-75
2023/06/04 08:45:12;;;;;;;6.72;1.42;;;17.40;99.90;;;;;;5096851;28;20047;-73
2023/06/04 08:47:44;;;;;;;7.03;2.28;;;17.50;99.90;;;;;;5114175;28;20132;-76
2023/06/04 08:50:10;;;;;;;9.38;1.95;;;17.50;99.90;;;;;;5096446;28;20040;-74
2023/06/04 08:52:37;;;;;;;6.10;1.30;;;17.40;99.90;;;;;;5096016;28;20051;-74
2023/06/04 08:55:04;;;;;;;6.25;1.30;;;17.50;99.90;;;;;;5080089;28;20066;-74
2023/06/04 08:57:31;;;;;;;6.55;1.40;;;17.70;99.90;;;;;;5114837;28;20056;-76
2023/06/04 08:59:56;;;;;;;;;;;17.80;99.90;;;;;;5114431;28;20447;-74
2023/06/04 09:02:23;;;;;;;5.97;1.50;;;17.90;99.90;;;;;;5096117;28;19920;-75
2023/06/04 09:04:49;;;;;;;5.10;1.30;;;18.00;99.90;;;;;;5095655;28;20392;-75
2023/06/04 09:07:17;;;;;;;5.43;1.40;;;18.10;99.90;;;;;;5079274;28;20142;-76
2023/06/04 09:09:46;;;;;;;6.28;1.10;;;18.20;99.90;;;;;;5114212;28;20097;-74
2023/06/04 09:12:21;;;;;;;6.82;1.10;;;18.10;99.90;;;;;;5095921;28;20108;-77
2023/06/04 09:14:47;;;;;;;5.32;0.90;;;18.30;99.90;;;;;;5113623;28;20477;-74
2023/06/04 09:17:14;;;;;;;7.68;1.30;;;18.20;99.90;;;;;;5113186;28;20599;-75
2023/06/04 09:19:40;;;;;;;;;;;18.20;99.90;;;;;;5113794;28;20051;-75
2023/06/04 09:22:06;;;;;;;6.27;1.40;;;18.20;99.90;;;;;;5096036;28;19919;-77
2023/06/04 09:24:49;;;;;;;3.28;0.98;;;18.30;99.90;;;;;;5114089;28;20043;-75
2023/06/04 09:27:17;;;;;;;5.75;1.10;;;18.30;99.90;;;;;;5118682;28;20123;-73
2023/06/04 09:29:53;;;;;;;7.90;1.30;;;18.40;99.90;;;;;;5086466;28;20032;-76
2023/06/04 09:32:28;;;;;;;4.15;1.02;;;18.40;99.90;;;;;;5096476;28;20438;-75
2023/06/04 09:35:14;;;;;;;5.53;0.98;;;18.50;99.90;;;;;;5095807;28;20098;-75
2023/06/04 09:37:54;;;;;;;9.25;1.00;;;18.60;99.90;;;;;;5113439;28;20040;-73
2023/06/04 09:40:19;;;;;;;5.75;1.33;;;18.60;99.90;;;;;;5096813;28;20114;-75
2023/06/04 09:42:49;;;;;;;8.77;0.90;;;18.80;99.90;;;;;;5061988;28;20092;-75
2023/06/04 09:45:30;;;;;;;2.30;0.70;;;18.80;99.90;;;;;;5096410;28;20127;-72
2023/06/04 09:48:00;;;;;;;5.00;0.90;;;18.80;98.60;;;;;;5117397;28;20052;-71
2023/06/04 09:50:38;;;;;;;4.07;0.80;;;18.80;98.40;;;;;;5099753;28;20052;-73
2023/06/04 09:53:25;;;;;;;5.47;0.80;;;18.90;98.40;;;;;;5099860;28;20044;-74
2023/06/04 09:55:58;;;;;;;6.18;0.80;;;18.90;97.10;;;;;;5117352;28;20083;-71
2023/06/04 09:58:28;;;;;;;6.88;0.90;;;19.10;96.70;;;;;;5099053;28;20051;-74
2023/06/04 10:00:57;;;;;;;3.58;0.80;;;19.20;97.50;;;;;;5083126;28;20050;-75
2023/06/04 10:03:27;;;;;;;5.60;0.70;;;19.40;97.30;;;;;;5117137;28;20047;-74
2023/06/04 10:05:55;;;;;;;4.50;0.77;;;19.30;94.50;;;;;;5117634;28;20039;-75
2023/06/04 10:08:23;;;;;;;6.20;0.88;;;19.40;96.00;;;;;;5117031;28;20044;-74
2023/06/04 10:10:52;;;;;;;4.07;0.60;;;19.40;93.80;;;;;;5117237;28;20051;-75
2023/06/04 10:13:19;;;;;;;8.48;1.00;;;19.40;95.00;;;;;;5098654;28;20050;-72
2023/06/04 10:15:49;;;;;;;3.38;0.73;;;19.30;94.20;;;;;;5098900;28;20052;-75
2023/06/04 10:18:15;;;;;;;2.38;0.60;;;19.40;93.80;;;;;;5081515;28;20055;-73
2023/06/04 10:20:41;;;;;;;5.97;0.90;;;19.20;92.80;;;;;;5098486;28;20055;-72
2023/06/04 10:23:08;;;;;;;3.67;0.88;;;19.10;93.10;;;;;;5098845;28;20093;-74
2023/06/04 10:25:37;;;;;;;5.07;0.75;;;19.30;93.60;;;;;;5098961;28;20051;-75
2023/06/04 10:28:03;;;;;;;5.15;0.90;;;19.50;94.70;;;;;;5099074;28;20506;-75
2023/06/04 10:30:30;;;;;;;4.55;0.82;;;19.70;93.00;;;;;;5081982;28;20089;-73
2023/06/04 10:32:59;;;;;;;2.53;0.50;;;19.70;90.30;;;;;;5117475;28;20044;-73
2023/06/04 10:35:36;;;;;;;4.10;0.68;;;19.70;88.90;;;;;;5116616;28;20053;-73
2023/06/04 10:38:13;;;;;;;3.05;0.68;;;19.70;90.00;;;;;;5097147;28;20051;-73
2023/06/04 10:40:39;;;;;;;5.30;0.80;;;19.80;91.00;;;;;;5103666;28;20056;-72
2023/06/04 10:43:07;;;;;;;4.53;0.60;;;19.90;91.80;;;;;;5098395;28;20389;-74
2023/06/04 10:45:33;;;;;;;4.20;0.60;;;20.20;92.40;;;;;;5081455;28;20473;-73
2023/06/04 10:48:07;;;;;;;3.75;0.77;;;20.10;89.30;;;;;;5082314;28;20388;-74
2023/06/04 10:50:34;;;;;;;7.93;0.70;;;20.10;90.40;;;;;;5116492;28;20043;-73
2023/06/04 10:53:05;;;;;;;3.50;0.90;;;20.00;90.00;;;;;;5098968;28;20051;-73
2023/06/04 10:55:31;;;;;;;2.90;0.65;;;20.10;90.70;;;;;;5116864;28;20130;-70
2023/06/04 10:58:01;;;;;;;3.10;0.90;;;20.10;87.90;;;;;;5097298;28;20047;-73
2023/06/04 11:00:48;;;;;;;5.53;0.88;;;20.20;90.60;;;;;;5098263;28;20043;-74
2023/06/04 11:03:15;;;;;;;5.20;0.65;;;20.00;89.10;;;;;;5080941;28;20039;-70
2023/06/04 11:05:43;;;;;;;2.45;0.70;;;20.10;90.00;;;;;;5081172;28;20054;-72
2023/06/04 11:08:11;;;;;;;4.85;0.60;;;20.10;88.80;;;;;;5098200;28;20181;-75
2023/06/04 11:10:46;;;;;;;3.85;0.70;;;19.90;89.30;;;;;;5097902;28;20044;-77
2023/06/04 11:13:12;;;;;;;2.25;0.60;;;20.10;89.70;;;;;;5097531;28;20039;-74
2023/06/04 11:15:42;;;;;;;2.95;0.52;;;20.20;88.20;;;;;;5116590;28;20040;-72
2023/06/04 11:18:08;;;;;;;4.05;0.73;;;20.10;86.70;;;;;;5093932;28;20060;-74
2023/06/04 11:20:34;;;;;;;5.18;0.90;;;20.20;88.30;;;;;;5094249;28;20062;-76
2023/06/04 11:23:02;;;;;;;5.40;0.80;;;20.50;89.60;;;;;;5094182;28;20504;-75
2023/06/04 11:25:30;;;;;;;3.75;0.60;;;20.30;88.10;;;;;;5095198;28;20127;-75
2023/06/04 11:27:57;;;;;;;4.05;0.75;;;20.40;89.40;;;;;;5076795;28;20044;-78
2023/06/04 11:30:24;;;;;;;4.15;0.73;;;20.50;89.70;;;;;;5095413;28;20524;-74
2023/06/04 11:32:59;;;;;;;4.70;0.60;;;20.30;85.50;;;;;;5094778;28;20071;-76
2023/06/04 11:35:26;;;;;;;4.78;0.90;;;20.50;87.70;;;;;;5095764;28;20099;-73
2023/06/04 11:37:56;;;;;;;;;;;20.70;89.70;;;;;;5096058;28;20052;-75
2023/06/04 11:40:23;;;;;;;3.75;0.80;;;20.70;87.10;;;;;;5079044;28;19992;-76
2023/06/04 11:42:50;;;;;;;5.43;0.82;;;20.80;86.80;;;;;;5095159;28;20085;-75
2023/06/04 11:45:20;;;;;;;3.40;0.70;;;20.50;85.00;;;;;;5094743;28;20044;-75
2023/06/04 11:47:53;;;;;;;5.32;0.93;;;20.70;86.80;;;;;;5096845;28;20044;-72
2023/06/04 11:50:21;;;;;;;3.08;0.60;;;20.70;83.10;;;;;;5109678;28;20040;-75
2023/06/04 11:52:48;;;;;;;4.95;0.70;;;20.70;84.60;;;;;;5100989;28;20489;-73
2023/06/04 11:55:17;;;;;;;7.15;0.85;;;20.60;85.90;;;;;;5095261;28;20079;-74
2023/06/04 11:57:43;;;;;;;5.90;0.88;;;20.80;86.50;;;;;;5094188;28;20385;-75
2023/06/04 12:00:10;;;;;;;5.65;0.80;;;20.70;85.00;;;;;;5094935;28;20054;-75
2023/06/04 12:02:48;;;;;;;4.13;0.70;;;20.80;85.30;;;;;;5094439;28;20044;-75
2023/06/04 12:05:18;;;;;;;6.30;1.00;;;20.90;84.80;;;;;;5096365;28;20135;-74
2023/06/04 12:07:53;;;;;;;5.15;0.88;;;20.90;85.70;;;;;;5095362;28;20119;-74
2023/06/04 12:10:21;;;;;;;5.20;0.80;;;20.90;82.70;;;;;;5096068;28;20054;-74
2023/06/04 12:12:55;;;;;;;6.35;0.60;;;20.80;82.20;;;;;;5093758;28;20131;-74
2023/06/04 12:15:22;;;;;;;2.83;0.75;;;20.90;82.20;;;;;;5093125;28;20051;-73
2023/06/04 12:17:53;;;;;;;3.83;0.75;;;20.80;81.60;;;;;;5094151;28;20052;-73
2023/06/04 12:20:42;;;;;;;6.03;0.90;;;20.60;81.20;;;;;;5095385;28;20056;-75
2023/06/04 12:23:09;;;;;;;3.80;0.77;;;20.70;82.10;;;;;;5096077;28;20083;-74
2023/06/04 12:25:37;;;;;;;;;;;20.80;82.50;;;;;;5079668;28;20601;-74
2023/06/04 12:28:04;;;;;;;3.85;0.68;;;20.60;81.50;;;;;;5077451;28;19927;-77
2023/06/04 12:30:40;;;;;;;3.20;0.70;;;20.70;80.00;;;;;;5076876;28;20481;-74
2023/06/04 12:33:07;;;;;;;4.07;0.73;;;20.80;81.50;;;;;;5076481;28;20043;-76
2023/06/04 12:35:34;;;;;;;3.97;0.80;;;21.00;81.80;;;;;;5093427;28;20055;-74
2023/06/04 12:38:00;;;;;;;4.60;0.80;;;21.10;81.50;;;;;;5093282;28;20081;-74
2023/06/04 12:40:25;;;;;;;4.80;0.77;;;20.80;77.90;;;;;;5093405;28;20474;-76
2023/06/04 12:42:51;;;;;;;2.33;0.60;;;21.00;80.90;;;;;;5076211;28;20048;-76
2023/06/04 12:45:18;;;;;;;4.95;0.80;;;21.20;81.50;;;;;;5093555;28;20102;-75
2023/06/04 12:47:47;;;;;;;2.90;0.80;;;21.30;78.60;;;;;;5078444;28;20401;-77
2023/06/04 12:50:14;;;;;;;4.20;0.70;;;21.30;75.80;;;;;;5095747;28;20091;-75